Time;durP1;ratioP1;P1;durP2;ratioP2;P2;SDS_P1;SDS_P2;PMS_P1;PMS_P2;Temp;Humidity;BMP_temperature;BMP_pressure;BME280_temperature;BME280_humidity;BME280_pressure;Samples;Min_cycle;Max_cycle;Signal;HPM_P1;HPM_P2
2023/01/26 00:00:22;;;;;;;127.53;46.05;;;;;;;;;;5138838;27;20206;-67
2023/01/26 00:02:49;;;;;;;122.63;46.47;;;;;;;;;;5138546;27;20277;-67
2023/01/26 00:05:17;;;;;;;103.25;41.88;;;;;;;;;;5138419;27;20214;-67
2023/01/26 00:07:44;;;;;;;132.57;46.63;;;;;;;;;;5138098;27;20198;-67
2023/01/26 00:10:11;;;;;;;107.97;44.88;;;;;;;;;;5138325;27;20310;-67
2023/01/26 00:12:39;;;;;;;112.55;40.80;;;;;;;;;;5137864;27;20197;-67
2023/01/26 00:15:08;;;;;;;104.07;42.45;;;;;;;;;;5137998;27;20224;-66
2023/01/26 00:17:37;;;;;;;111.55;45.22;;;;;;;;;;5137812;27;20202;-66
2023/01/26 00:20:04;;;;;;;109.40;42.72;;;;;;;;;;5138120;27;20204;-66
2023/01/26 00:22:32;;;;;;;118.25;47.13;;;;;;;;;;5137798;27;20729;-66
2023/01/26 00:24:59;;;;;;;107.25;43.70;;;;;;;;;;5137720;27;20279;-66
2023/01/26 00:27:26;;;;;;;122.25;46.47;;;;;;;;;;5138125;27;20188;-66
2023/01/26 00:29:53;;;;;;;115.45;45.38;;;;;;;;;;5137702;27;20674;-66
2023/01/26 00:32:22;;;;;;;118.10;44.53;;;;;;;;;;5138015;27;20568;-66
2023/01/26 00:34:49;;;;;;;114.47;45.90;;;;;;;;;;5137844;27;20188;-66
2023/01/26 00:37:16;;;;;;;110.25;43.70;;;;;;;;;;5137407;27;20193;-66
2023/01/26 00:39:43;;;;;;;112.90;46.55;;;;;;;;;;5138189;27;20188;-66
2023/01/26 00:42:12;;;;;;;119.97;48.03;;;;;;;;;;5137586;27;20203;-66
2023/01/26 00:44:40;;;;;;;114.18;43.88;;;;;;;;;;5137587;27;20279;-66
2023/01/26 00:47:08;;;;;;;114.50;43.22;;;;;;;;;;5137560;27;20200;-66
2023/01/26 00:49:37;;;;;;;111.53;46.75;;;;;;;;;;5137200;27;20675;-67
2023/01/26 00:52:04;;;;;;;129.75;48.42;;;;;;;;;;5137149;27;20196;-66
2023/01/26 00:54:32;;;;;;;122.10;49.05;;;;;;;;;;5137989;27;20192;-69
2023/01/26 00:56:59;;;;;;;120.25;48.05;;;;;;;;;;5137362;27;20224;-67
2023/01/26 00:59:26;;;;;;;118.60;47.20;;;;;;;;;;5137426;27;20194;-66
2023/01/26 01:01:53;;;;;;;116.93;47.25;;;;;;;;;;5137164;27;20192;-66
2023/01/26 01:04:21;;;;;;;110.45;44.03;;;;;;;;;;5136983;27;20661;-66
2023/01/26 01:06:49;;;;;;;121.95;44.90;;;;;;;;;;5136647;27;20196;-66
2023/01/26 01:09:16;;;;;;;123.43;44.60;;;;;;;;;;5137208;27;20200;-66
2023/01/26 01:11:44;;;;;;;119.75;44.65;;;;;;;;;;5137247;27;20221;-66
2023/01/26 01:14:12;;;;;;;111.78;44.65;;;;;;;;;;5136755;27;20200;-66
2023/01/26 01:16:39;;;;;;;115.57;45.72;;;;;;;;;;5137592;27;20196;-66
2023/01/26 01:19:07;;;;;;;103.90;40.83;;;;;;;;;;5137019;27;20196;-66
2023/01/26 01:21:35;;;;;;;117.80;44.03;;;;;;;;;;5137072;27;20200;-66
2023/01/26 01:24:03;;;;;;;117.60;41.83;;;;;;;;;;5136906;27;20195;-66
2023/01/26 01:26:31;;;;;;;104.20;41.65;;;;;;;;;;5136535;27;20196;-66
2023/01/26 01:28:58;;;;;;;108.55;39.72;;;;;;;;;;5136813;27;20295;-66
2023/01/26 01:31:25;;;;;;;112.50;40.60;;;;;;;;;;5136860;27;20215;-67
2023/01/26 01:33:53;;;;;;;107.18;42.67;;;;;;;;;;5136375;27;20245;-66
2023/01/26 01:36:20;;;;;;;117.07;43.30;;;;;;;;;;5136650;27;20192;-66
2023/01/26 01:38:47;;;;;;;115.72;43.28;;;;;;;;;;5136538;27;20566;-66
2023/01/26 01:41:17;;;;;;;119.85;42.83;;;;;;;;;;5136598;27;20192;-66
2023/01/26 01:43:44;;;;;;;113.35;42.72;;;;;;;;;;5136439;27;20198;-66
2023/01/26 01:46:18;;;;;;;121.78;46.05;;;;;;;;;;5136524;27;20196;-66
2023/01/26 01:48:49;;;;;;;113.82;44.80;;;;;;;;;;5136328;27;20192;-66
2023/01/26 01:51:19;;;;;;;120.18;42.40;;;;;;;;;;5136455;27;20209;-66
2023/01/26 01:53:48;;;;;;;100.53;41.97;;;;;;;;;;5136077;27;20547;-66
2023/01/26 01:56:20;;;;;;;108.45;41.85;;;;;;;;;;5135768;27;20234;-67
2023/01/26 01:58:48;;;;;;;119.97;45.92;;;;;;;;;;5135808;27;20189;-66
2023/01/26 02:01:16;;;;;;;108.70;42.90;;;;;;;;;;5136414;27;20210;-67
2023/01/26 02:03:44;;;;;;;122.95;45.33;;;;;;;;;;5136035;27;20192;-66
2023/01/26 02:06:14;;;;;;;117.40;44.22;;;;;;;;;;5135849;27;20235;-66
2023/01/26 02:08:43;;;;;;;119.45;44.72;;;;;;;;;;5135456;27;20189;-66
2023/01/26 02:11:12;;;;;;;120.68;45.28;;;;;;;;;;5136161;27;20226;-67
2023/01/26 02:13:42;;;;;;;115.35;43.17;;;;;;;;;;5135818;27;20192;-66
2023/01/26 02:16:09;;;;;;;122.75;43.22;;;;;;;;;;5135819;27;20218;-66
2023/01/26 02:18:36;;;;;;;106.95;42.30;;;;;;;;;;5135095;27;20192;-66
2023/01/26 02:21:05;;;;;;;113.47;42.90;;;;;;;;;;5135759;27;20202;-66
2023/01/26 02:23:36;;;;;;;124.07;46.03;;;;;;;;;;5135602;27;20199;-66
2023/01/26 02:26:10;;;;;;;123.03;47.47;;;;;;;;;;5135996;27;20185;-66
2023/01/26 02:28:37;;;;;;;100.75;42.70;;;;;;;;;;5135332;27;20189;-66
2023/01/26 02:31:04;;;;;;;113.13;44.60;;;;;;;;;;5135217;27;20673;-66
2023/01/26 02:33:32;;;;;;;109.10;42.63;;;;;;;;;;5135389;27;20202;-66
2023/01/26 02:36:01;;;;;;;94.55;38.47;;;;;;;;;;5135439;27;20188;-66
2023/01/26 02:38:29;;;;;;;112.55;44.47;;;;;;;;;;5135414;27;20273;-66
2023/01/26 02:40:59;;;;;;;110.70;39.17;;;;;;;;;;5135852;27;20192;-66
2023/01/26 02:43:27;;;;;;;114.25;42.85;;;;;;;;;;5135538;27;20188;-66
2023/01/26 02:45:54;;;;;;;108.18;41.88;;;;;;;;;;5135873;27;20192;-66
2023/01/26 02:51:03;;;;;;;111.50;42.35;;;;;;;;;;5134042;27;20210;-66
2023/01/26 02:53:31;;;;;;;108.70;41.13;;;;;;;;;;5135025;27;20188;-66
2023/01/26 02:55:57;;;;;;;113.25;40.55;;;;;;;;;;5134809;27;20201;-66
2023/01/26 02:58:24;;;;;;;110.70;43.75;;;;;;;;;;5135771;27;20199;-66
2023/01/26 03:00:53;;;;;;;107.00;41.90;;;;;;;;;;5135034;27;20214;-66
2023/01/26 03:03:21;;;;;;;97.10;39.63;;;;;;;;;;5134941;27;20275;-67
2023/01/26 03:05:48;;;;;;;96.72;37.67;;;;;;;;;;5135386;27;20192;-66
2023/01/26 03:08:15;;;;;;;120.05;40.47;;;;;;;;;;5134759;27;20196;-67
2023/01/26 03:10:43;;;;;;;107.55;40.03;;;;;;;;;;5135028;27;20220;-66
2023/01/26 03:13:10;;;;;;;110.47;40.55;;;;;;;;;;5135043;27;20246;-66
2023/01/26 03:15:51;;;;;;;111.82;43.22;;;;;;;;;;5134801;27;20195;-67
2023/01/26 03:29:21;;;;;;;108.82;42.38;;;;;;;;;;5134327;27;20175;-67
2023/01/26 03:31:48;;;;;;;119.43;42.50;;;;;;;;;;5133652;27;20220;-67
2023/01/26 03:34:17;;;;;;;131.68;46.85;;;;;;;;;;5134458;27;20200;-67
2023/01/26 03:36:44;;;;;;;108.18;41.78;;;;;;;;;;5134797;27;20280;-67
2023/01/26 03:41:06;;;;;;;128.40;46.42;;;;;;;;;;5134644;27;20196;-67
2023/01/26 03:58:29;;;;;;;117.40;44.88;;;;;;;;;;5134044;28;20201;-68
2023/01/26 04:00:56;;;;;;;116.03;41.55;;;;;;;;;;5135139;28;20658;-67
2023/01/26 04:08:54;;;;;;;116.88;40.80;;;;;;;;;;5134068;28;20179;-67
2023/01/26 04:11:22;;;;;;;130.48;45.20;;;;;;;;;;5134120;28;20216;-67
2023/01/26 04:22:04;;;;;;;132.10;43.80;;;;;;;;;;5134149;28;20180;-67
2023/01/26 04:24:31;;;;;;;115.72;40.58;;;;;;;;;;5134120;28;20192;-66
2023/01/26 04:26:59;;;;;;;143.10;47.35;;;;;;;;;;5134044;28;20189;-67
2023/01/26 04:29:26;;;;;;;125.50;41.90;;;;;;;;;;5133722;28;20676;-67
2023/01/26 04:31:53;;;;;;;106.00;41.17;;;;;;;;;;5134455;28;20222;-70
2023/01/26 04:34:20;;;;;;;131.00;45.05;;;;;;;;;;5133808;28;20196;-67
2023/01/26 04:36:48;;;;;;;143.88;47.03;;;;;;;;;;5134389;28;20221;-67
2023/01/26 04:39:16;;;;;;;130.90;43.45;;;;;;;;;;5133498;28;20203;-64
2023/01/26 04:41:43;;;;;;;127.05;41.08;;;;;;;;;;5134849;27;20195;-66
2023/01/26 04:44:11;;;;;;;123.18;42.67;;;;;;;;;;5137877;27;20668;-66
2023/01/26 04:46:38;;;;;;;125.13;44.20;;;;;;;;;;5137769;27;20192;-66
2023/01/26 04:49:05;;;;;;;122.43;42.58;;;;;;;;;;5137244;27;20726;-67
2023/01/26 04:51:32;;;;;;;125.05;45.47;;;;;;;;;;5137186;27;20703;-67
2023/01/26 04:53:59;;;;;;;146.95;47.80;;;;;;;;;;5137562;27;20195;-67
2023/01/26 04:56:29;;;;;;;140.30;44.47;;;;;;;;;;5136254;27;20232;-67
2023/01/26 04:58:56;;;;;;;129.70;46.58;;;;;;;;;;5137021;27;20188;-67
2023/01/26 05:01:23;;;;;;;134.98;43.67;;;;;;;;;;5137102;27;20203;-67
2023/01/26 05:03:51;;;;;;;141.68;44.88;;;;;;;;;;5136956;27;20646;-67
2023/01/26 05:06:18;;;;;;;127.57;46.25;;;;;;;;;;5137119;27;20195;-67
2023/01/26 05:08:45;;;;;;;134.70;46.45;;;;;;;;;;5137240;27;20218;-67
2023/01/26 05:11:13;;;;;;;114.80;41.72;;;;;;;;;;5136650;27;20215;-67
2023/01/26 05:13:41;;;;;;;128.27;43.90;;;;;;;;;;5137015;27;20199;-67
2023/01/26 05:16:12;;;;;;;124.38;42.58;;;;;;;;;;5136750;27;20287;-67
2023/01/26 05:18:40;;;;;;;129.30;42.80;;;;;;;;;;5136984;27;20191;-67
2023/01/26 05:21:07;;;;;;;136.63;44.45;;;;;;;;;;5136542;27;20204;-68
2023/01/26 05:23:34;;;;;;;124.95;43.75;;;;;;;;;;5136686;27;20736;-67
2023/01/26 05:26:02;;;;;;;141.57;44.85;;;;;;;;;;5136854;27;20203;-67
2023/01/26 05:28:29;;;;;;;137.75;45.45;;;;;;;;;;5136851;27;20207;-68
2023/01/26 05:30:57;;;;;;;131.90;43.17;;;;;;;;;;5136564;27;20189;-67
2023/01/26 05:33:24;;;;;;;124.50;41.60;;;;;;;;;;5136902;27;20195;-67
2023/01/26 05:35:52;;;;;;;124.97;44.55;;;;;;;;;;5136781;27;20188;-67
2023/01/26 05:38:19;;;;;;;126.80;42.70;;;;;;;;;;5136513;27;20192;-67
2023/01/26 05:40:47;;;;;;;113.20;39.75;;;;;;;;;;5136066;27;20290;-67
2023/01/26 05:43:14;;;;;;;131.50;42.25;;;;;;;;;;5137101;27;20283;-67
2023/01/26 05:45:41;;;;;;;114.28;39.92;;;;;;;;;;5136440;27;20194;-68
2023/01/26 05:48:10;;;;;;;116.80;40.38;;;;;;;;;;5136370;27;20192;-67
2023/01/26 05:50:37;;;;;;;108.60;41.55;;;;;;;;;;5136240;27;20230;-67
2023/01/26 05:53:05;;;;;;;131.95;43.67;;;;;;;;;;5135374;27;20220;-67
2023/01/26 05:55:32;;;;;;;134.40;43.72;;;;;;;;;;5135963;27;20576;-67
2023/01/26 05:57:59;;;;;;;101.65;39.60;;;;;;;;;;5135893;27;20220;-67
2023/01/26 06:00:26;;;;;;;128.93;43.65;;;;;;;;;;5136066;27;20192;-67
2023/01/26 06:02:53;;;;;;;120.25;40.70;;;;;;;;;;5136325;27;20199;-67
2023/01/26 06:05:22;;;;;;;111.85;35.83;;;;;;;;;;5136084;27;20188;-67
2023/01/26 06:07:49;;;;;;;104.85;37.30;;;;;;;;;;5136116;27;20188;-67
2023/01/26 06:10:17;;;;;;;103.68;37.17;;;;;;;;;;5135656;27;20195;-65
2023/01/26 06:12:44;;;;;;;112.50;39.53;;;;;;;;;;5135863;27;20290;-65
2023/01/26 06:15:12;;;;;;;116.90;41.15;;;;;;;;;;5135491;27;20259;-66
2023/01/26 06:17:39;;;;;;;122.13;38.80;;;;;;;;;;5136169;27;20192;-66
2023/01/26 06:20:07;;;;;;;95.78;36.90;;;;;;;;;;5136004;27;20192;-66
2023/01/26 06:22:35;;;;;;;112.78;39.92;;;;;;;;;;5135761;27;20200;-66
2023/01/26 06:25:02;;;;;;;103.47;39.88;;;;;;;;;;5135731;27;20200;-66
2023/01/26 06:27:30;;;;;;;110.88;37.70;;;;;;;;;;5135176;27;20196;-66
2023/01/26 06:29:57;;;;;;;107.00;37.83;;;;;;;;;;5135643;27;20206;-66
2023/01/26 06:32:24;;;;;;;102.72;36.63;;;;;;;;;;5135166;27;20214;-66
2023/01/26 06:34:52;;;;;;;120.03;40.33;;;;;;;;;;5135582;27;20215;-66
2023/01/26 06:37:19;;;;;;;107.07;34.88;;;;;;;;;;5135090;27;20200;-66
2023/01/26 06:39:48;;;;;;;102.93;34.33;;;;;;;;;;5135673;27;20192;-66
2023/01/26 06:42:15;;;;;;;103.20;34.58;;;;;;;;;;5135550;27;20196;-66
2023/01/26 06:44:42;;;;;;;119.55;39.15;;;;;;;;;;5135152;27;20200;-66
2023/01/26 06:47:11;;;;;;;100.78;36.33;;;;;;;;;;5134953;27;20752;-66
2023/01/26 06:49:38;;;;;;;109.78;36.15;;;;;;;;;;5135409;27;20649;-66
2023/01/26 06:52:06;;;;;;;92.40;34.75;;;;;;;;;;5135022;27;20665;-66
2023/01/26 06:54:33;;;;;;;115.38;35.13;;;;;;;;;;5134803;27;20198;-66
2023/01/26 06:57:02;;;;;;;93.63;34.17;;;;;;;;;;5134775;27;20224;-66
2023/01/26 06:59:29;;;;;;;106.80;35.60;;;;;;;;;;5134944;27;20193;-66
2023/01/26 07:01:56;;;;;;;111.82;36.33;;;;;;;;;;5134460;27;20221;-66
2023/01/26 07:04:26;;;;;;;85.28;32.60;;;;;;;;;;5134647;27;20199;-66
2023/01/26 07:06:53;;;;;;;78.43;33.90;;;;;;;;;;5134943;27;20245;-66
2023/01/26 07:09:20;;;;;;;88.28;33.05;;;;;;;;;;5135172;27;20189;-66
2023/01/26 07:11:47;;;;;;;86.50;32.05;;;;;;;;;;5134758;27;20215;-66
2023/01/26 07:14:16;;;;;;;80.00;31.00;;;;;;;;;;5134824;27;20210;-66
2023/01/26 07:16:43;;;;;;;88.45;32.55;;;;;;;;;;5134502;27;20196;-66
2023/01/26 07:19:10;;;;;;;94.28;33.58;;;;;;;;;;5134581;27;20192;-66
2023/01/26 07:21:37;;;;;;;84.70;33.38;;;;;;;;;;5134322;27;20192;-66
2023/01/26 07:24:06;;;;;;;76.20;31.63;;;;;;;;;;5134594;27;20655;-66
2023/01/26 07:26:34;;;;;;;68.45;26.98;;;;;;;;;;5134555;27;21342;-66
2023/01/26 07:29:01;;;;;;;72.53;25.70;;;;;;;;;;5134298;27;20600;-66
2023/01/26 07:31:29;;;;;;;74.95;29.48;;;;;;;;;;5134237;27;20650;-66
2023/01/26 07:33:56;;;;;;;77.57;31.10;;;;;;;;;;5134441;27;20243;-66
2023/01/26 07:36:24;;;;;;;77.32;29.80;;;;;;;;;;5134837;27;20196;-66
2023/01/26 07:38:51;;;;;;;60.67;27.25;;;;;;;;;;5134194;27;20192;-66
2023/01/26 07:41:18;;;;;;;63.20;26.98;;;;;;;;;;5134320;27;20555;-66
2023/01/26 07:43:45;;;;;;;76.40;27.35;;;;;;;;;;5134634;28;20199;-65
2023/01/26 07:46:12;;;;;;;65.85;27.40;;;;;;;;;;5134400;28;20282;-65
2023/01/26 07:48:45;;;;;;;63.30;26.27;;;;;;;;;;5134598;28;20645;-65
2023/01/26 07:51:13;;;;;;;68.20;26.35;;;;;;;;;;5134358;28;20180;-65
2023/01/26 07:53:42;;;;;;;74.38;26.98;;;;;;;;;;5134151;28;20225;-65
2023/01/26 07:56:10;;;;;;;70.22;25.73;;;;;;;;;;5134799;28;20235;-65
2023/01/26 07:58:37;;;;;;;83.55;28.00;;;;;;;;;;5134676;28;20192;-65
2023/01/26 08:01:05;;;;;;;75.95;29.70;;;;;;;;;;5134324;28;20202;-65
2023/01/26 08:03:32;;;;;;;74.15;29.60;;;;;;;;;;5133860;28;20207;-65
2023/01/26 08:05:59;;;;;;;65.75;24.85;;;;;;;;;;5134361;28;20634;-65
2023/01/26 08:08:28;;;;;;;67.10;28.65;;;;;;;;;;5134201;28;20238;-65
2023/01/26 08:10:56;;;;;;;73.15;28.00;;;;;;;;;;5133998;28;20195;-65
2023/01/26 08:13:23;;;;;;;76.32;26.92;;;;;;;;;;5133725;28;20222;-65
2023/01/26 08:15:50;;;;;;;74.55;26.85;;;;;;;;;;5133781;27;20653;-65
2023/01/26 08:18:18;;;;;;;60.50;22.60;;;;;;;;;;5137666;27;20199;-65
2023/01/26 08:20:50;;;;;;;61.75;27.60;;;;;;;;;;5138138;27;20189;-65
2023/01/26 08:23:17;;;;;;;88.38;28.15;;;;;;;;;;5138392;27;20237;-65
2023/01/26 08:25:45;;;;;;;59.97;24.27;;;;;;;;;;5138195;27;20192;-65
2023/01/26 08:28:13;;;;;;;77.90;27.45;;;;;;;;;;5137548;27;20193;-65
2023/01/26 08:30:40;;;;;;;64.22;25.65;;;;;;;;;;5137689;27;20234;-65
2023/01/26 08:33:08;;;;;;;58.30;23.55;;;;;;;;;;5137756;27;20211;-65
2023/01/26 08:35:35;;;;;;;57.40;24.88;;;;;;;;;;5138166;27;20199;-65
2023/01/26 08:38:03;;;;;;;63.25;24.90;;;;;;;;;;5137740;27;20188;-65
2023/01/26 08:40:30;;;;;;;59.15;25.17;;;;;;;;;;5137792;27;20232;-65
2023/01/26 08:43:02;;;;;;;68.18;26.65;;;;;;;;;;5137387;27;20649;-65
2023/01/26 08:45:29;;;;;;;58.25;22.52;;;;;;;;;;5137641;27;20181;-65
2023/01/26 08:47:57;;;;;;;60.25;24.63;;;;;;;;;;5137622;27;20192;-65
2023/01/26 08:50:24;;;;;;;51.90;21.55;;;;;;;;;;5137263;27;20283;-65
2023/01/26 08:52:51;;;;;;;55.05;22.60;;;;;;;;;;5137342;27;20226;-65
2023/01/26 08:55:18;;;;;;;54.65;19.50;;;;;;;;;;5137268;27;20199;-64
2023/01/26 08:57:45;;;;;;;51.00;19.15;;;;;;;;;;5137141;27;20220;-64
2023/01/26 09:00:15;;;;;;;46.05;19.83;;;;;;;;;;5137778;27;20254;-64
2023/01/26 09:02:42;;;;;;;67.38;20.55;;;;;;;;;;5137119;27;20288;-65
2023/01/26 09:05:10;;;;;;;53.88;21.88;;;;;;;;;;5137324;27;20549;-64
2023/01/26 09:07:37;;;;;;;42.50;18.08;;;;;;;;;;5137339;27;20644;-64
2023/01/26 09:10:05;;;;;;;46.20;20.50;;;;;;;;;;5137288;27;20558;-64
2023/01/26 09:12:32;;;;;;;37.55;18.42;;;;;;;;;;5137253;27;20550;-64
2023/01/26 09:14:59;;;;;;;44.05;21.00;;;;;;;;;;5137224;27;20557;-64
2023/01/26 09:17:27;;;;;;;40.33;17.58;;;;;;;;;;5137405;27;20193;-66
2023/01/26 09:19:55;;;;;;;54.90;18.95;;;;;;;;;;5137477;27;20554;-64
2023/01/26 09:22:22;;;;;;;42.08;17.67;;;;;;;;;;5137107;27;20195;-65
2023/01/26 09:24:49;;;;;;;41.10;19.92;;;;;;;;;;5136939;27;20197;-65
2023/01/26 09:27:16;;;;;;;44.47;19.33;;;;;;;;;;5136706;27;20730;-65
2023/01/26 09:29:43;;;;;;;43.17;17.25;;;;;;;;;;5136858;27;20193;-65
2023/01/26 09:32:11;;;;;;;39.60;17.05;;;;;;;;;;5136864;27;20200;-65
2023/01/26 09:34:39;;;;;;;47.05;17.67;;;;;;;;;;5136653;27;20224;-65
2023/01/26 09:37:07;;;;;;;44.95;19.48;;;;;;;;;;5136884;27;20226;-65
2023/01/26 09:39:34;;;;;;;39.05;15.05;;;;;;;;;;5136813;27;20200;-65
2023/01/26 09:42:17;;;;;;;38.33;17.63;;;;;;;;;;5136709;27;20393;-64
2023/01/26 09:44:48;;;;;;;40.10;18.27;;;;;;;;;;5136625;27;20180;-65
2023/01/26 09:47:21;;;;;;;37.22;17.48;;;;;;;;;;5137159;27;20541;-64
2023/01/26 09:49:51;;;;;;;42.45;18.55;;;;;;;;;;5136837;27;20182;-64
2023/01/26 09:52:24;;;;;;;43.53;18.30;;;;;;;;;;5136266;27;20644;-64
2023/01/26 09:54:52;;;;;;;36.35;17.13;;;;;;;;;;5136490;27;20280;-64
2023/01/26 09:57:21;;;;;;;36.95;16.58;;;;;;;;;;5136406;27;20221;-64
2023/01/26 09:59:51;;;;;;;38.25;15.95;;;;;;;;;;5136513;27;20197;-64
2023/01/26 10:02:24;;;;;;;39.60;16.30;;;;;;;;;;5136688;27;20232;-65
2023/01/26 10:04:57;;;;;;;39.42;16.05;;;;;;;;;;5136396;27;20553;-65
2023/01/26 10:07:24;;;;;;;32.35;15.15;;;;;;;;;;5136752;27;20193;-64
2023/01/26 10:09:52;;;;;;;39.75;15.15;;;;;;;;;;5135738;27;20189;-64
2023/01/26 10:12:22;;;;;;;36.58;17.00;;;;;;;;;;5136067;27;20190;-64
2023/01/26 10:14:51;;;;;;;36.25;16.13;;;;;;;;;;5135513;27;20711;-64
2023/01/26 10:17:21;;;;;;;32.00;15.40;;;;;;;;;;5135949;27;20190;-64
2023/01/26 10:19:51;;;;;;;31.30;14.60;;;;;;;;;;5135883;27;20287;-64
2023/01/26 10:22:21;;;;;;;35.95;14.90;;;;;;;;;;5135573;27;20198;-64
2023/01/26 10:24:49;;;;;;;28.77;13.10;;;;;;;;;;5135515;27;20196;-64
2023/01/26 10:27:17;;;;;;;25.20;12.82;;;;;;;;;;5136217;27;20544;-63
2023/01/26 10:29:45;;;;;;;30.77;13.38;;;;;;;;;;5135586;27;20199;-63
2023/01/26 10:32:14;;;;;;;35.28;12.95;;;;;;;;;;5135841;27;20193;-63
2023/01/26 10:34:41;;;;;;;25.73;12.20;;;;;;;;;;5135360;27;20585;-63
2023/01/26 10:37:21;;;;;;;27.45;11.50;;;;;;;;;;5135570;27;20203;-63
2023/01/26 10:39:59;;;;;;;25.77;12.13;;;;;;;;;;5135249;27;20176;-63
2023/01/26 10:42:28;;;;;;;23.17;12.05;;;;;;;;;;5135798;27;20243;-63
2023/01/26 10:44:55;;;;;;;31.13;11.60;;;;;;;;;;5135028;27;20201;-63
2023/01/26 10:47:23;;;;;;;25.45;11.90;;;;;;;;;;5135323;27;20189;-63
2023/01/26 10:49:50;;;;;;;23.30;12.15;;;;;;;;;;5134983;27;20196;-63
2023/01/26 10:52:20;;;;;;;23.45;11.05;;;;;;;;;;5135086;27;20194;-63
2023/01/26 10:54:47;;;;;;;27.27;11.50;;;;;;;;;;5135427;27;20212;-63
2023/01/26 10:57:18;;;;;;;28.30;11.77;;;;;;;;;;5134662;27;20749;-63
2023/01/26 10:59:50;;;;;;;23.85;10.55;;;;;;;;;;5135059;27;20600;-63
2023/01/26 11:02:21;;;;;;;24.95;11.60;;;;;;;;;;5135265;27;20188;-63
2023/01/26 11:05:02;;;;;;;27.73;13.40;;;;;;;;;;5135392;27;20269;-64
2023/01/26 11:07:33;;;;;;;23.48;11.90;;;;;;;;;;5135490;27;20242;-63
2023/01/26 11:10:16;;;;;;;21.85;10.50;;;;;;;;;;5134696;27;20186;-63
2023/01/26 11:12:45;;;;;;;26.85;12.35;;;;;;;;;;5135233;27;20273;-63
2023/01/26 11:15:16;;;;;;;18.40;10.13;;;;;;;;;;5134962;27;20573;-63
2023/01/26 11:17:47;;;;;;;19.65;9.52;;;;;;;;;;5135417;27;20186;-63
2023/01/26 11:20:40;;;;;;;21.85;11.80;;;;;;;;;;5135299;27;20187;-63
2023/01/26 11:23:12;;;;;;;31.40;12.80;;;;;;;;;;5134917;27;20221;-63
2023/01/26 11:25:41;;;;;;;25.33;13.07;;;;;;;;;;5134502;27;20655;-63
2023/01/26 11:28:25;;;;;;;22.45;10.88;;;;;;;;;;5134671;27;20195;-63
2023/01/26 11:31:00;;;;;;;37.58;13.50;;;;;;;;;;5135093;27;20192;-63
2023/01/26 11:33:30;;;;;;;28.33;12.63;;;;;;;;;;5134363;27;20295;-63
2023/01/26 11:36:01;;;;;;;26.60;13.25;;;;;;;;;;5134361;27;20656;-63
2023/01/26 11:38:33;;;;;;;29.55;11.70;;;;;;;;;;5134974;27;20185;-63
2023/01/26 11:41:06;;;;;;;24.52;10.48;;;;;;;;;;5134501;27;20188;-63
2023/01/26 11:43:54;;;;;;;21.23;10.95;;;;;;;;;;5134512;27;20635;-63
2023/01/26 11:46:39;;;;;;;23.95;9.88;;;;;;;;;;5092002;28;20196;-63
2023/01/26 11:49:16;;;;;;;20.88;11.10;;;;;;;;;;5134259;28;20199;-63
2023/01/26 11:51:49;;;;;;;23.33;10.15;;;;;;;;;;5135344;27;20545;-63
2023/01/26 11:54:33;;;;;;;20.88;10.38;;;;;;;;;;5139420;27;20212;-63
2023/01/26 11:57:03;;;;;;;28.45;10.95;;;;;;;;;;5136746;27;20547;-63
2023/01/26 11:59:33;;;;;;;21.35;11.10;;;;;;;;;;5138795;27;20185;-64
2023/01/26 12:02:02;;;;;;;23.13;9.05;;;;;;;;;;5138603;27;20192;-63
2023/01/26 12:04:33;;;;;;;18.63;10.23;;;;;;;;;;5138641;27;20201;-63
2023/01/26 12:07:04;;;;;;;19.45;9.93;;;;;;;;;;5138561;27;20268;-63
2023/01/26 12:09:37;;;;;;;18.40;7.97;;;;;;;;;;5138818;27;20269;-64
2023/01/26 12:12:06;;;;;;;13.10;7.07;;;;;;;;;;5138165;27;20186;-64
2023/01/26 12:14:37;;;;;;;17.55;9.15;;;;;;;;;;5138306;27;20213;-64
2023/01/26 12:17:17;;;;;;;17.15;9.70;;;;;;;;;;5138150;27;20185;-64
2023/01/26 12:19:48;;;;;;;17.45;8.68;;;;;;;;;;5138413;27;20693;-64
2023/01/26 12:22:20;;;;;;;16.98;8.32;;;;;;;;;;5138280;27;20182;-64
2023/01/26 12:24:50;;;;;;;18.95;8.85;;;;;;;;;;5138193;27;20185;-64
2023/01/26 12:27:22;;;;;;;18.42;9.60;;;;;;;;;;5138229;27;20194;-65
2023/01/26 12:29:52;;;;;;;25.55;9.10;;;;;;;;;;5138180;27;20643;-64
2023/01/26 12:32:21;;;;;;;17.77;9.45;;;;;;;;;;5137994;27;20194;-64
2023/01/26 12:34:49;;;;;;;19.95;9.38;;;;;;;;;;5137934;27;20688;-64
2023/01/26 12:37:32;;;;;;;22.65;8.93;;;;;;;;;;5137857;27;20200;-64
2023/01/26 12:40:06;;;;;;;15.25;9.18;;;;;;;;;;5137564;27;20271;-64
2023/01/26 12:42:40;;;;;;;14.73;9.43;;;;;;;;;;5137792;27;20189;-65
2023/01/26 12:45:10;;;;;;;19.38;10.05;;;;;;;;;;5138131;27;20600;-65
2023/01/26 12:47:39;;;;;;;18.88;10.70;;;;;;;;;;5138155;27;20182;-67
2023/01/26 12:50:12;;;;;;;19.25;10.15;;;;;;;;;;5137743;27;20557;-64
2023/01/26 12:52:43;;;;;;;16.83;9.93;;;;;;;;;;5137385;27;20628;-64
2023/01/26 12:55:16;;;;;;;20.20;10.50;;;;;;;;;;5137801;27;20640;-63
2023/01/26 12:57:45;;;;;;;21.83;10.45;;;;;;;;;;5137169;27;20590;-64
2023/01/26 13:00:19;;;;;;;31.42;12.32;;;;;;;;;;5137485;27;20204;-65
2023/01/26 13:02:47;;;;;;;32.95;12.25;;;;;;;;;;5136723;27;20272;-63
2023/01/26 13:05:26;;;;;;;42.10;12.95;;;;;;;;;;5137390;27;20284;-64
2023/01/26 13:07:53;;;;;;;42.95;13.07;;;;;;;;;;5137620;27;20219;-64
2023/01/26 13:10:24;;;;;;;42.45;13.82;;;;;;;;;;5137345;27;20279;-64
2023/01/26 13:12:53;;;;;;;42.30;13.93;;;;;;;;;;5137190;27;20703;-65
2023/01/26 13:15:21;;;;;;;40.10;13.13;;;;;;;;;;5137327;27;20215;-65
2023/01/26 13:17:49;;;;;;;40.45;13.38;;;;;;;;;;5137027;27;20658;-65
2023/01/26 13:20:23;;;;;;;47.25;14.90;;;;;;;;;;5137098;27;20193;-65
2023/01/26 13:22:53;;;;;;;52.80;15.55;;;;;;;;;;5137038;27;20182;-65
2023/01/26 13:25:31;;;;;;;44.42;15.18;;;;;;;;;;5137516;27;20196;-65
2023/01/26 13:27:59;;;;;;;46.85;16.02;;;;;;;;;;5136825;27;20204;-65
2023/01/26 13:30:44;;;;;;;50.83;16.58;;;;;;;;;;5136522;27;20282;-65
2023/01/26 13:33:14;;;;;;;67.47;18.45;;;;;;;;;;5136604;27;20219;-66
2023/01/26 13:35:41;;;;;;;65.43;17.77;;;;;;;;;;5136465;27;20224;-66
2023/01/26 13:38:15;;;;;;;70.85;18.80;;;;;;;;;;5136439;27;20650;-66
2023/01/26 13:40:43;;;;;;;76.38;20.45;;;;;;;;;;5137073;27;20198;-66
2023/01/26 13:43:13;;;;;;;85.20;21.55;;;;;;;;;;5136620;27;20248;-65
2023/01/26 13:45:46;;;;;;;60.65;17.15;;;;;;;;;;5136802;27;20197;-66
2023/01/26 13:48:15;;;;;;;60.03;18.33;;;;;;;;;;5136640;27;20205;-66
2023/01/26 13:50:43;;;;;;;73.75;19.90;;;;;;;;;;5136311;27;20562;-66
2023/01/26 13:53:35;;;;;;;82.57;20.45;;;;;;;;;;5136428;27;20206;-71
2023/01/26 13:56:04;;;;;;;55.50;16.92;;;;;;;;;;5136107;27;20667;-67
2023/01/26 13:58:31;;;;;;;58.13;19.40;;;;;;;;;;5137212;27;20610;-67
2023/01/26 14:00:59;;;;;;;96.70;29.65;;;;;;;;;;5136094;27;20194;-67
2023/01/26 14:03:26;;;;;;;99.78;34.97;;;;;;;;;;5136321;27;20531;-67
2023/01/26 14:05:56;;;;;;;73.30;23.08;;;;;;;;;;5136231;27;20294;-68
2023/01/26 14:08:23;;;;;;;93.68;23.70;;;;;;;;;;5136130;27;20231;-68
2023/01/26 14:10:52;;;;;;;51.95;20.80;;;;;;;;;;5135859;27;20237;-68
2023/01/26 14:13:21;;;;;;;82.10;22.35;;;;;;;;;;5135921;27;20262;-68
2023/01/26 14:15:56;;;;;;;69.50;21.48;;;;;;;;;;5135314;27;20225;-68
2023/01/26 14:18:23;;;;;;;73.43;18.75;;;;;;;;;;5135435;27;20193;-68
2023/01/26 14:20:50;;;;;;;68.20;19.90;;;;;;;;;;5134814;27;20193;-68
2023/01/26 14:23:18;;;;;;;68.40;20.58;;;;;;;;;;5135575;27;20188;-68
2023/01/26 14:25:47;;;;;;;94.22;24.38;;;;;;;;;;5135438;27;20198;-68
2023/01/26 14:28:17;;;;;;;82.45;22.05;;;;;;;;;;5135853;27;20639;-68
2023/01/26 14:30:46;;;;;;;74.80;24.10;;;;;;;;;;5135299;27;20635;-68
2023/01/26 14:33:14;;;;;;;74.93;20.02;;;;;;;;;;5135516;27;20208;-68
2023/01/26 14:35:42;;;;;;;80.38;23.52;;;;;;;;;;5135754;27;20220;-68
2023/01/26 14:38:14;;;;;;;71.93;21.55;;;;;;;;;;5135309;27;20652;-68
2023/01/26 14:40:44;;;;;;;85.22;23.27;;;;;;;;;;5135327;27;20194;-68
2023/01/26 14:43:12;;;;;;;90.00;26.25;;;;;;;;;;5135310;27;20180;-68
2023/01/26 14:45:43;;;;;;;68.35;22.17;;;;;;;;;;5135518;27;20198;-68
2023/01/26 14:48:13;;;;;;;76.15;22.63;;;;;;;;;;5135307;27;20182;-68
2023/01/26 14:50:40;;;;;;;77.25;22.55;;;;;;;;;;5135087;27;20221;-68
2023/01/26 14:53:16;;;;;;;73.70;20.73;;;;;;;;;;5135122;27;20362;-68
2023/01/26 14:55:44;;;;;;;66.32;20.65;;;;;;;;;;5135004;27;20313;-68
2023/01/26 14:58:15;;;;;;;71.90;20.85;;;;;;;;;;5135147;27;20605;-68
2023/01/26 15:00:47;;;;;;;72.65;22.10;;;;;;;;;;5134651;27;20188;-68
2023/01/26 15:03:20;;;;;;;69.63;21.02;;;;;;;;;;5135103;27;20192;-68
2023/01/26 15:05:48;;;;;;;90.10;22.75;;;;;;;;;;5135367;27;20254;-68